createdAt,value
2023-05-18T00:05:45.012Z,3.40
2023-05-18T00:20:50.599Z,3.73
2023-05-18T00:35:57.204Z,3.97
2023-05-18T00:51:02.039Z,3.07
2023-05-18T01:06:07.505Z,2.63
2023-05-18T01:21:19.844Z,4.07
2023-05-18T01:36:24.434Z,3.17
2023-05-18T01:51:37.278Z,3.97
2023-05-18T02:06:41.769Z,3.80
2023-05-18T02:21:46.839Z,4.20
2023-05-18T02:36:51.520Z,4.47
2023-05-18T02:51:55.944Z,5.80
2023-05-18T03:07:02.673Z,4.47
2023-05-18T03:22:07.863Z,5.63
2023-05-18T03:37:12.689Z,5.30
2023-05-18T03:52:22.462Z,5.77
2023-05-18T04:07:27.068Z,5.23
2023-05-18T04:22:32.373Z,5.80
2023-05-18T04:37:40.308Z,7.47
2023-05-18T04:52:50.362Z,6.40
2023-05-18T05:07:57.613Z,6.63
2023-05-18T05:23:02.342Z,7.37
2023-05-18T05:38:07.533Z,7.67
2023-05-18T05:53:13.086Z,6.67
2023-05-18T06:08:18.027Z,6.83
2023-05-18T06:23:24.304Z,7.17
2023-05-18T06:38:37.543Z,7.67
2023-05-18T06:53:43.426Z,7.17
2023-05-18T07:08:48.744Z,8.30
2023-05-18T07:23:53.384Z,7.27
2023-05-18T07:38:59.100Z,7.10
2023-05-18T07:54:05.240Z,6.67
2023-05-18T08:09:09.945Z,6.47
2023-05-18T08:24:14.708Z,7.27
2023-05-18T08:39:19.249Z,6.00
2023-05-18T08:54:25.209Z,6.90
2023-05-18T09:09:30.861Z,6.13
2023-05-18T09:24:37.942Z,5.57
2023-05-18T09:39:43.635Z,7.13
2023-05-18T09:54:58.782Z,6.63
2023-05-18T10:10:07.148Z,6.83
2023-05-18T10:25:14.998Z,6.17
2023-05-18T10:40:22.368Z,6.57
2023-05-18T10:55:29.106Z,6.33
2023-05-18T11:10:42.436Z,5.50
2023-05-18T11:25:49.674Z,5.03
2023-05-18T11:41:00.739Z,6.07
2023-05-18T11:56:05.898Z,6.10
2023-05-18T12:11:11.602Z,6.57
2023-05-18T12:26:20.487Z,5.50
2023-05-18T12:41:26.518Z,5.03
2023-05-18T12:56:51.944Z,6.20
2023-05-18T13:12:07.293Z,5.73
2023-05-18T13:27:12.978Z,5.87
2023-05-18T13:42:21.035Z,6.93
2023-05-18T13:57:26.275Z,4.97
2023-05-18T14:12:30.758Z,4.33
2023-05-18T14:27:35.335Z,4.13
2023-05-18T14:42:39.750Z,3.50
2023-05-18T14:57:44.410Z,3.73
2023-05-18T15:12:49.469Z,4.20
2023-05-18T15:42:58.341Z,2.87
2023-05-18T15:58:03.239Z,3.60
2023-05-18T16:13:08.808Z,3.57
2023-05-18T16:28:13.275Z,4.43
2023-05-18T16:43:17.681Z,4.27
2023-05-18T16:58:22.187Z,3.90
2023-05-18T17:13:26.651Z,4.47
2023-05-18T17:28:31.212Z,5.13
2023-05-18T17:43:35.811Z,4.37
2023-05-18T17:58:40.397Z,3.87
2023-05-18T18:13:44.816Z,4.37
2023-05-18T18:28:49.321Z,4.70
2023-05-18T18:43:54.918Z,5.17
2023-05-18T18:58:59.937Z,4.73
2023-05-18T19:14:05.129Z,4.40
2023-05-18T19:29:09.656Z,6.37
2023-05-18T19:44:14.250Z,4.57
2023-05-18T19:59:18.741Z,4.00
2023-05-18T20:14:23.409Z,5.03
2023-05-18T20:29:27.852Z,5.33
2023-05-18T20:44:32.402Z,4.60
2023-05-18T20:59:36.815Z,4.40
2023-05-18T21:14:41.404Z,5.03
2023-05-18T21:29:45.892Z,4.83
2023-05-18T21:44:50.307Z,5.10
2023-05-18T21:59:54.745Z,4.87
2023-05-18T22:14:59.257Z,5.00
2023-05-18T22:30:04.844Z,5.53
2023-05-18T22:45:11.538Z,6.07
2023-05-18T23:00:16.667Z,5.53
2023-05-18T23:15:22.105Z,6.03
2023-05-18T23:30:27.165Z,5.30
2023-05-18T23:45:32.483Z,5.97
